createdAt,value
2016-10-21T00:00:38.029Z,0
2016-10-21T00:01:50.422Z,0
2016-10-21T00:03:03.991Z,0
2016-10-21T00:04:16.928Z,0
2016-10-21T00:05:30.571Z,0
2016-10-21T00:06:42.978Z,0
2016-10-21T00:07:56.490Z,0
2016-10-21T00:09:08.411Z,0
2016-10-21T00:10:21.415Z,0
2016-10-21T00:11:34.363Z,0
2016-10-21T00:12:46.832Z,0
2016-10-21T00:13:59.767Z,0
2016-10-21T00:15:12.830Z,0
2016-10-21T00:16:25.329Z,0
2016-10-21T00:17:37.714Z,0
2016-10-21T00:18:50.696Z,0
2016-10-21T00:20:03.086Z,0
2016-10-21T00:21:15.545Z,0
2016-10-21T00:22:28.630Z,0
2016-10-21T00:23:41.088Z,0
2016-10-21T00:24:54.663Z,0
2016-10-21T00:26:08.101Z,0
2016-10-21T00:27:21.776Z,0
2016-10-21T00:28:34.765Z,0
2016-10-21T00:29:47.724Z,0
2016-10-21T00:31:00.625Z,0
2016-10-21T00:32:13.041Z,0
2016-10-21T00:33:25.955Z,0
2016-10-21T00:34:38.923Z,0
2016-10-21T00:35:51.352Z,0
2016-10-21T00:37:04.340Z,0
2016-10-21T00:38:17.906Z,0
2016-10-21T00:39:30.345Z,0
2016-10-21T00:40:43.324Z,0
2016-10-21T00:41:55.795Z,0
2016-10-21T00:43:08.720Z,0
2016-10-21T00:44:22.226Z,0
2016-10-21T00:45:35.677Z,0
2016-10-21T00:46:48.142Z,0
2016-10-21T00:48:00.085Z,0
2016-10-21T00:49:13.700Z,0
2016-10-21T00:50:26.608Z,0
2016-10-21T00:51:37.946Z,0
2016-10-21T00:52:51.380Z,0
2016-10-21T00:54:04.350Z,0
2016-10-21T00:55:18.025Z,0
2016-10-21T00:56:31.526Z,0
2016-10-21T00:57:44.447Z,0
2016-10-21T00:58:56.454Z,12
2016-10-21T01:00:10.058Z,12
2016-10-21T01:01:21.462Z,8
2016-10-21T01:02:34.943Z,12
2016-10-21T01:03:48.437Z,0
2016-10-21T01:05:00.923Z,0
2016-10-21T01:06:13.968Z,0
2016-10-21T01:07:27.556Z,0
2016-10-21T01:08:40.952Z,0
2016-10-21T01:09:52.834Z,0
2016-10-21T01:11:05.918Z,0
2016-10-21T01:12:18.840Z,0
2016-10-21T01:13:32.320Z,0
2016-10-21T01:14:45.296Z,0
2016-10-21T01:15:57.881Z,0
2016-10-21T01:17:10.792Z,0
2016-10-21T01:18:24.260Z,0
2016-10-21T01:19:37.705Z,0
2016-10-21T01:20:50.665Z,0
2016-10-21T01:22:02.679Z,0
2016-10-21T01:23:16.149Z,0
2016-10-21T01:24:29.204Z,0
2016-10-21T01:25:42.195Z,0
2016-10-21T01:26:55.354Z,0
2016-10-21T01:28:08.363Z,0
2016-10-21T01:29:21.424Z,0
2016-10-21T01:30:34.969Z,0
2016-10-21T01:31:48.418Z,0
2016-10-21T01:33:01.514Z,0
2016-10-21T01:34:13.438Z,0
2016-10-21T01:35:26.427Z,0
2016-10-21T01:36:39.406Z,0
2016-10-21T01:37:51.807Z,0
2016-10-21T01:39:04.160Z,0
2016-10-21T01:40:17.664Z,0
2016-10-21T01:41:30.600Z,0
2016-10-21T01:42:44.145Z,0
2016-10-21T01:43:56.649Z,0
2016-10-21T01:45:09.104Z,0
2016-10-21T01:46:21.032Z,0
2016-10-21T01:47:34.391Z,0
2016-10-21T01:48:47.404Z,0
2016-10-21T01:49:59.851Z,0
2016-10-21T01:51:12.766Z,0
2016-10-21T01:52:25.757Z,0
2016-10-21T01:53:38.692Z,0
2016-10-21T01:54:52.324Z,0
2016-10-21T01:56:05.244Z,0
2016-10-21T01:57:18.700Z,0
2016-10-21T01:58:31.223Z,0
2016-10-21T01:59:42.640Z,0
2016-10-21T02:00:55.546Z,0
2016-10-21T02:02:08.595Z,0
2016-10-21T02:03:21.123Z,0
2016-10-21T02:04:33.606Z,0
2016-10-21T02:05:47.280Z,0
2016-10-21T02:07:00.341Z,0
2016-10-21T02:08:13.274Z,0
2016-10-21T02:09:26.797Z,0
2016-10-21T02:10:39.822Z,0
2016-10-21T02:11:52.739Z,0
2016-10-21T02:13:05.745Z,0
2016-10-21T02:14:19.273Z,0
2016-10-21T02:15:32.255Z,0
2016-10-21T02:16:45.382Z,0
2016-10-21T02:17:57.762Z,0
2016-10-21T02:19:10.148Z,0
2016-10-21T02:20:23.154Z,0
2016-10-21T02:21:36.615Z,0
2016-10-21T02:22:49.086Z,0
2016-10-21T02:24:02.038Z,0
2016-10-21T02:25:15.651Z,0
2016-10-21T02:26:29.145Z,0
2016-10-21T02:27:41.193Z,0
2016-10-21T02:28:53.082Z,0
2016-10-21T02:30:06.496Z,0
2016-10-21T02:31:18.986Z,0
2016-10-21T02:32:32.545Z,0
2016-10-21T02:33:45.506Z,0
2016-10-21T02:34:58.995Z,0
2016-10-21T02:36:12.011Z,0
2016-10-21T02:37:25.008Z,0
2016-10-21T02:38:38.731Z,0
2016-10-21T02:39:51.730Z,0
2016-10-21T02:41:05.288Z,0
2016-10-21T02:42:18.768Z,0
2016-10-21T02:43:31.398Z,0
2016-10-21T02:44:44.354Z,0
2016-10-21T02:45:57.826Z,0
2016-10-21T02:47:10.244Z,0
2016-10-21T02:48:23.200Z,0
2016-10-21T02:49:36.896Z,0
2016-10-21T02:50:49.274Z,0
2016-10-21T02:52:02.760Z,0
2016-10-21T02:53:15.688Z,0
2016-10-21T02:54:29.235Z,0
2016-10-21T02:55:42.267Z,0
2016-10-21T02:56:55.226Z,0
2016-10-21T02:58:07.622Z,0
2016-10-21T02:59:21.049Z,0
2016-10-21T03:00:34.162Z,0
2016-10-21T03:01:47.144Z,0
2016-10-21T03:03:00.038Z,0
2016-10-21T03:04:12.994Z,0
2016-10-21T03:05:26.079Z,0
2016-10-21T03:06:39.125Z,0
2016-10-21T03:07:52.049Z,0
2016-10-21T03:09:05.532Z,0
2016-10-21T03:10:18.628Z,0
2016-10-21T03:11:31.669Z,0
2016-10-21T03:12:45.106Z,0
2016-10-21T03:13:57.453Z,0
2016-10-21T03:15:09.826Z,0
2016-10-21T03:16:22.264Z,0
2016-10-21T03:17:36.194Z,0
2016-10-21T03:18:48.660Z,0
2016-10-21T03:20:01.550Z,0
2016-10-21T03:21:14.451Z,0
2016-10-21T03:22:27.551Z,0
2016-10-21T03:23:41.101Z,0
2016-10-21T03:24:54.039Z,0
2016-10-21T03:26:07.569Z,0
2016-10-21T03:27:20.535Z,0
2016-10-21T03:28:32.961Z,0
2016-10-21T03:29:45.851Z,0
2016-10-21T03:30:58.274Z,0
2016-10-21T03:32:11.848Z,0
2016-10-21T03:33:25.269Z,0
2016-10-21T03:34:37.913Z,0
2016-10-21T03:35:50.834Z,0
2016-10-21T03:37:02.687Z,0
2016-10-21T03:38:15.099Z,0
2016-10-21T03:39:28.210Z,0
2016-10-21T03:40:41.173Z,0
2016-10-21T03:41:54.151Z,0
2016-10-21T03:43:06.593Z,0
2016-10-21T03:44:19.656Z,0
2016-10-21T03:45:32.158Z,0
2016-10-21T03:46:45.178Z,0
2016-10-21T03:47:57.630Z,0
2016-10-21T03:49:11.169Z,0
2016-10-21T03:50:24.122Z,0
2016-10-21T03:51:36.563Z,0
2016-10-21T03:52:49.572Z,0
2016-10-21T03:54:03.122Z,0
2016-10-21T03:55:16.220Z,0
2016-10-21T03:56:29.697Z,0
2016-10-21T03:57:42.732Z,0
2016-10-21T03:58:55.179Z,0
2016-10-21T04:00:07.185Z,0
2016-10-21T04:01:20.143Z,0
2016-10-21T04:02:33.201Z,0
2016-10-21T04:03:46.133Z,0
2016-10-21T04:04:58.541Z,0
2016-10-21T04:06:12.084Z,0
2016-10-21T04:07:25.049Z,0
2016-10-21T04:08:36.903Z,0
2016-10-21T04:09:49.351Z,0
2016-10-21T04:11:02.370Z,0
2016-10-21T04:12:16.000Z,0
2016-10-21T04:13:28.929Z,0
2016-10-21T04:14:40.869Z,0
2016-10-21T04:15:53.781Z,0
2016-10-21T04:17:07.501Z,0
2016-10-21T04:18:20.479Z,0
2016-10-21T04:19:33.453Z,0
2016-10-21T04:20:46.916Z,0
2016-10-21T04:22:00.499Z,0
2016-10-21T04:23:14.001Z,0
2016-10-21T04:24:27.467Z,0
2016-10-21T04:25:39.940Z,0
2016-10-21T04:26:52.901Z,0
2016-10-21T04:28:06.005Z,0
2016-10-21T04:29:19.013Z,0
2016-10-21T04:30:31.937Z,0
2016-10-21T04:31:44.830Z,0
2016-10-21T04:32:57.792Z,0
2016-10-21T04:34:10.746Z,0
2016-10-21T04:35:23.714Z,0
2016-10-21T04:36:37.242Z,0
2016-10-21T04:37:50.301Z,0
2016-10-21T04:39:03.880Z,0
2016-10-21T04:40:16.272Z,0
2016-10-21T04:41:29.752Z,0
2016-10-21T04:42:42.673Z,0
2016-10-21T04:43:55.620Z,0
2016-10-21T04:45:08.603Z,0
2016-10-21T04:46:20.536Z,0
2016-10-21T04:47:33.462Z,0
2016-10-21T04:48:46.376Z,0
2016-10-21T04:49:59.477Z,0
2016-10-21T04:51:12.414Z,0
2016-10-21T04:52:24.887Z,0
2016-10-21T04:53:37.864Z,0
2016-10-21T04:54:51.371Z,0
2016-10-21T04:56:04.938Z,0
2016-10-21T04:57:17.498Z,0
2016-10-21T04:58:30.968Z,0
2016-10-21T04:59:44.444Z,0
2016-10-21T05:00:57.164Z,0
2016-10-21T05:02:10.865Z,0
2016-10-21T05:03:23.284Z,0
2016-10-21T05:04:35.696Z,0
2016-10-21T05:05:48.154Z,0
2016-10-21T05:07:01.684Z,0
2016-10-21T05:08:14.078Z,0
2016-10-21T05:09:26.515Z,0
2016-10-21T05:10:38.937Z,0
2016-10-21T05:11:52.032Z,0
2016-10-21T05:13:03.426Z,0
2016-10-21T05:14:16.339Z,0
2016-10-21T05:15:28.224Z,0
2016-10-21T05:16:41.776Z,0
2016-10-21T05:17:54.158Z,0
2016-10-21T05:19:07.127Z,0
2016-10-21T05:20:19.600Z,0
2016-10-21T05:21:33.037Z,0
2016-10-21T05:22:46.262Z,0
2016-10-21T05:23:58.139Z,0
2016-10-21T05:25:11.700Z,0
2016-10-21T05:26:25.189Z,12
2016-10-21T05:27:38.149Z,12
2016-10-21T05:28:51.096Z,12
2016-10-21T05:30:04.535Z,8
2016-10-21T05:31:17.541Z,8
2016-10-21T05:32:30.492Z,0
2016-10-21T05:33:44.007Z,0
2016-10-21T05:34:56.973Z,0
2016-10-21T05:36:09.480Z,0
2016-10-21T05:37:23.045Z,0
2016-10-21T05:38:36.578Z,0
2016-10-21T05:39:49.540Z,0
2016-10-21T05:41:02.480Z,0
2016-10-21T05:42:14.885Z,0
2016-10-21T05:43:27.901Z,0
2016-10-21T05:44:41.063Z,0
2016-10-21T05:45:54.086Z,0
2016-10-21T05:47:06.526Z,0
2016-10-21T05:48:20.006Z,0
2016-10-21T05:49:33.018Z,0
2016-10-21T05:50:46.504Z,0
2016-10-21T05:52:00.002Z,0
2016-10-21T05:53:12.384Z,0
2016-10-21T05:54:25.325Z,0
2016-10-21T05:55:38.385Z,0
2016-10-21T05:56:51.876Z,0
2016-10-21T05:58:05.363Z,0
2016-10-21T05:59:18.346Z,0
2016-10-21T06:00:30.851Z,0
2016-10-21T06:01:44.281Z,0
2016-10-21T06:02:57.760Z,0
2016-10-21T06:04:11.199Z,0
2016-10-21T06:05:24.118Z,0
2016-10-21T06:06:37.190Z,0
2016-10-21T06:07:50.188Z,0
2016-10-21T06:09:03.166Z,0
2016-10-21T06:10:15.584Z,0
2016-10-21T06:11:28.535Z,0
2016-10-21T06:12:40.945Z,0
2016-10-21T06:13:54.412Z,0
2016-10-21T06:15:07.375Z,0
2016-10-21T06:16:19.860Z,0
2016-10-21T06:17:33.462Z,0
2016-10-21T06:18:46.480Z,0
2016-10-21T06:19:59.398Z,0
2016-10-21T06:21:12.905Z,0
2016-10-21T06:22:26.453Z,0
2016-10-21T06:23:39.393Z,0
2016-10-21T06:24:52.861Z,0
2016-10-21T06:26:04.804Z,0
2016-10-21T06:27:17.280Z,0
2016-10-21T06:28:30.295Z,0
2016-10-21T06:29:43.787Z,0
2016-10-21T06:30:57.245Z,0
2016-10-21T06:32:10.214Z,0
2016-10-21T06:33:22.578Z,0
2016-10-21T06:34:36.091Z,0
2016-10-21T06:35:49.572Z,0
2016-10-21T06:37:02.006Z,0
2016-10-21T06:38:14.987Z,0
2016-10-21T06:39:28.544Z,0
2016-10-21T06:40:42.044Z,0
2016-10-21T06:41:55.003Z,0
2016-10-21T06:43:06.997Z,0
2016-10-21T06:44:20.070Z,0
2016-10-21T06:45:32.992Z,0
2016-10-21T06:46:45.450Z,0
2016-10-21T06:47:59.039Z,0
2016-10-21T06:49:12.496Z,0
2016-10-21T06:50:25.090Z,0
2016-10-21T06:51:37.993Z,0
2016-10-21T06:52:51.456Z,0
2016-10-21T06:54:04.432Z,0
2016-10-21T06:55:17.366Z,0
2016-10-21T06:56:30.840Z,0
2016-10-21T06:57:44.309Z,0
2016-10-21T06:58:57.772Z,0
2016-10-21T07:00:10.723Z,0
2016-10-21T07:01:23.787Z,0
2016-10-21T07:02:36.731Z,0
2016-10-21T07:03:50.218Z,0
2016-10-21T07:05:02.620Z,0
2016-10-21T07:06:16.148Z,0
2016-10-21T07:07:28.071Z,0
2016-10-21T07:08:41.065Z,0
2016-10-21T07:09:54.645Z,0
2016-10-21T07:11:07.672Z,0
2016-10-21T07:12:21.227Z,0
2016-10-21T07:13:33.106Z,0
2016-10-21T07:14:46.052Z,0
2016-10-21T07:15:59.050Z,0
2016-10-21T07:17:11.508Z,0
2016-10-21T07:18:23.966Z,0
2016-10-21T07:19:36.982Z,0
2016-10-21T07:20:49.932Z,0
2016-10-21T07:22:02.373Z,0
2016-10-21T07:23:16.006Z,0
2016-10-21T07:24:29.486Z,0
2016-10-21T07:25:41.946Z,0
2016-10-21T07:26:54.375Z,0
2016-10-21T07:28:07.285Z,0
2016-10-21T07:29:20.843Z,0
2016-10-21T07:30:33.332Z,0
2016-10-21T07:31:45.782Z,0
2016-10-21T07:32:58.761Z,0
2016-10-21T07:34:11.888Z,0
2016-10-21T07:35:24.798Z,0
2016-10-21T07:36:37.757Z,0
2016-10-21T07:37:50.703Z,0
2016-10-21T07:39:04.225Z,0
2016-10-21T07:40:17.692Z,0
2016-10-21T07:41:31.158Z,0
2016-10-21T07:42:43.573Z,0
2016-10-21T07:43:56.534Z,0
2016-10-21T07:45:09.056Z,0
2016-10-21T07:46:21.934Z,0
2016-10-21T07:47:34.945Z,0
2016-10-21T07:48:48.410Z,0
2016-10-21T07:50:01.376Z,0
2016-10-21T07:51:14.309Z,0
2016-10-21T07:52:26.209Z,0
2016-10-21T07:53:38.607Z,0
2016-10-21T07:54:50.572Z,0
2016-10-21T07:56:03.654Z,0
2016-10-21T07:57:16.058Z,0
2016-10-21T07:58:29.016Z,0
2016-10-21T07:59:42.043Z,0
2016-10-21T08:00:55.107Z,0
2016-10-21T08:02:07.532Z,0
2016-10-21T08:03:20.473Z,0
2016-10-21T08:04:33.960Z,0
2016-10-21T08:05:46.918Z,0
2016-10-21T08:07:00.530Z,4
2016-10-21T08:08:14.031Z,4
2016-10-21T08:09:26.904Z,4
2016-10-21T08:10:39.800Z,4
2016-10-21T08:11:52.794Z,4
2016-10-21T08:13:05.784Z,4
2016-10-21T08:14:18.792Z,4
2016-10-21T08:15:31.718Z,4
2016-10-21T08:16:45.257Z,12
2016-10-21T08:17:58.398Z,16
2016-10-21T08:19:11.406Z,24
2016-10-21T08:20:23.840Z,28
2016-10-21T08:21:36.868Z,40
2016-10-21T08:22:50.308Z,52
2016-10-21T08:24:03.788Z,76
2016-10-21T08:25:16.787Z,108
2016-10-21T08:26:29.255Z,132
2016-10-21T08:27:41.650Z,172
2016-10-21T08:28:54.758Z,204
2016-10-21T08:30:07.168Z,240
2016-10-21T08:31:20.191Z,288
2016-10-21T08:32:33.072Z,316
2016-10-21T08:33:45.994Z,328
2016-10-21T08:34:58.939Z,320
2016-10-21T08:36:12.353Z,304
2016-10-21T08:37:24.800Z,308
2016-10-21T08:38:37.850Z,372
2016-10-21T08:39:50.978Z,428
2016-10-21T08:41:03.379Z,508
2016-10-21T08:42:16.806Z,496
2016-10-21T08:43:29.768Z,468
2016-10-21T08:44:41.113Z,408
2016-10-21T08:45:54.714Z,368
2016-10-21T08:47:06.155Z,360
2016-10-21T08:48:18.109Z,332
2016-10-21T08:49:30.582Z,348
2016-10-21T08:50:43.727Z,348
2016-10-21T08:51:56.148Z,344
2016-10-21T08:53:08.601Z,352
2016-10-21T08:54:22.199Z,356
2016-10-21T08:55:35.202Z,392
2016-10-21T08:56:48.715Z,444
2016-10-21T08:58:02.288Z,356
2016-10-21T08:59:14.870Z,308
2016-10-21T09:00:27.340Z,264
2016-10-21T09:01:40.273Z,228
2016-10-21T09:02:52.733Z,244
2016-10-21T09:04:04.636Z,224
2016-10-21T09:05:17.594Z,268
2016-10-21T09:06:30.601Z,284
2016-10-21T09:07:43.045Z,292
2016-10-21T09:08:55.177Z,284
2016-10-21T09:10:08.466Z,288
2016-10-21T09:11:22.162Z,320
2016-10-21T09:12:35.839Z,400
2016-10-21T09:13:48.556Z,476
2016-10-21T09:15:02.031Z,468
2016-10-21T09:16:15.119Z,500
2016-10-21T09:17:27.670Z,532
2016-10-21T09:18:40.653Z,708
2016-10-21T09:19:54.146Z,880
2016-10-21T09:21:07.565Z,1032
2016-10-21T09:22:21.127Z,1228
2016-10-21T09:23:34.583Z,1680
2016-10-21T09:24:48.508Z,2408
2016-10-21T09:26:01.493Z,2876
2016-10-21T09:27:13.398Z,3148
2016-10-21T09:28:27.073Z,3256
2016-10-21T09:29:40.549Z,3332
2016-10-21T09:30:52.967Z,3584
2016-10-21T09:32:06.029Z,3536
2016-10-21T09:33:18.482Z,3316
2016-10-21T09:34:31.032Z,3268
2016-10-21T09:35:44.015Z,3212
2016-10-21T09:36:56.997Z,3204
2016-10-21T09:38:09.961Z,3216
2016-10-21T09:39:21.931Z,3152
2016-10-21T09:40:35.498Z,3336
2016-10-21T09:41:48.446Z,4028
2016-10-21T09:43:01.414Z,4332
2016-10-21T09:44:14.955Z,3728
2016-10-21T09:45:28.080Z,3360
2016-10-21T09:46:41.605Z,3204
2016-10-21T09:47:55.163Z,2744
2016-10-21T09:49:07.659Z,2824
2016-10-21T09:50:20.105Z,3416
2016-10-21T09:51:31.973Z,4476
2016-10-21T09:52:45.220Z,5392
2016-10-21T09:53:57.627Z,5772
2016-10-21T09:55:10.650Z,5688
2016-10-21T09:56:23.724Z,5740
2016-10-21T09:57:36.793Z,5272
2016-10-21T09:58:50.052Z,5472
2016-10-21T10:00:03.597Z,6348
2016-10-21T10:01:16.981Z,6828
2016-10-21T10:02:29.418Z,7508
2016-10-21T10:03:42.401Z,8440
2016-10-21T10:04:54.798Z,9628
2016-10-21T10:06:07.858Z,11112
2016-10-21T10:07:19.908Z,11520
2016-10-21T10:08:33.465Z,10728
2016-10-21T10:09:45.400Z,10332
2016-10-21T10:10:58.884Z,10460
2016-10-21T10:12:11.949Z,9540
2016-10-21T10:13:24.922Z,8952
2016-10-21T10:14:38.120Z,8460
2016-10-21T10:15:51.127Z,8576
2016-10-21T10:17:04.155Z,8560
2016-10-21T10:18:48.353Z,7956
2016-10-21T10:20:02.511Z,7340
2016-10-21T10:21:16.078Z,7508
2016-10-21T10:22:29.185Z,7580
2016-10-21T10:23:42.507Z,7448
2016-10-21T10:24:55.521Z,6448
2016-10-21T10:26:07.553Z,5816
2016-10-21T10:27:21.166Z,5296
2016-10-21T10:28:33.148Z,4804
2016-10-21T10:29:46.920Z,4272
2016-10-21T10:31:00.260Z,4248
2016-10-21T10:32:13.060Z,4404
2016-10-21T10:33:26.136Z,4236
2016-10-21T10:34:39.188Z,4532
2016-10-21T10:35:51.061Z,4060
2016-10-21T10:37:03.523Z,3020
2016-10-21T10:38:15.890Z,2512
2016-10-21T10:39:28.834Z,2484
2016-10-21T10:40:41.996Z,2752
2016-10-21T10:41:55.118Z,2868
2016-10-21T10:43:08.710Z,3656
2016-10-21T10:44:20.057Z,5504
2016-10-21T10:45:33.734Z,6980
2016-10-21T10:46:46.690Z,7196
2016-10-21T10:48:00.162Z,7420
2016-10-21T10:49:13.675Z,7816
2016-10-21T10:50:26.267Z,9160
2016-10-21T10:51:39.782Z,9160
2016-10-21T10:52:53.656Z,9560
2016-10-21T10:54:06.614Z,9616
2016-10-21T10:55:20.083Z,9528
2016-10-21T10:56:33.168Z,10092
2016-10-21T10:57:45.654Z,9436
2016-10-21T10:58:58.599Z,7596
2016-10-21T11:00:12.334Z,6652
2016-10-21T11:01:25.174Z,6788
2016-10-21T11:02:38.282Z,6736
2016-10-21T11:03:51.260Z,7248
2016-10-21T11:05:04.262Z,8112
2016-10-21T11:06:17.289Z,7368
2016-10-21T11:07:29.876Z,7012
2016-10-21T11:08:42.471Z,6472
2016-10-21T11:09:55.439Z,5704
2016-10-21T11:11:08.988Z,5216
2016-10-21T11:12:21.596Z,5140
2016-10-21T11:13:34.575Z,4824
2016-10-21T11:14:47.626Z,4664
2016-10-21T11:16:00.625Z,5024
2016-10-21T11:17:13.133Z,5688
2016-10-21T11:18:25.735Z,6792
2016-10-21T11:19:38.732Z,6716
2016-10-21T11:20:52.031Z,6200
2016-10-21T11:22:03.471Z,6344
2016-10-21T11:23:15.480Z,5396
2016-10-21T11:24:28.559Z,5840
2016-10-21T11:25:42.546Z,6316
2016-10-21T11:26:56.077Z,6764
2016-10-21T11:28:09.057Z,7116
2016-10-21T11:29:22.570Z,7380
2016-10-21T11:30:35.523Z,7972
2016-10-21T11:31:48.584Z,8568
2016-10-21T11:33:02.071Z,9972
2016-10-21T11:34:14.013Z,11636
2016-10-21T11:35:27.006Z,12576
2016-10-21T11:36:40.003Z,13320
2016-10-21T11:37:52.913Z,14968
2016-10-21T11:39:05.872Z,14856
2016-10-21T11:40:17.913Z,14584
2016-10-21T11:41:30.370Z,15244
2016-10-21T11:42:43.379Z,14040
2016-10-21T11:43:56.343Z,13652
2016-10-21T11:45:09.481Z,13968
2016-10-21T11:46:22.617Z,14348
2016-10-21T11:47:34.498Z,15960
2016-10-21T11:48:47.486Z,18208
2016-10-21T11:49:59.951Z,16536
2016-10-21T11:51:12.603Z,15484
2016-10-21T11:52:25.631Z,12212
2016-10-21T11:53:38.087Z,11064
2016-10-21T11:54:51.622Z,12608
2016-10-21T11:56:04.099Z,12532
2016-10-21T11:57:17.656Z,11204
2016-10-21T11:58:30.643Z,10368
2016-10-21T11:59:43.604Z,9716
2016-10-21T12:00:57.083Z,8956
2016-10-21T12:02:09.152Z,7984
2016-10-21T12:03:22.144Z,6356
2016-10-21T12:05:05.812Z,5692
2016-10-21T12:06:18.819Z,5220
2016-10-21T12:07:32.548Z,5012
2016-10-21T12:08:45.454Z,4368
2016-10-21T12:09:58.429Z,3656
2016-10-21T12:11:11.915Z,3344
2016-10-21T12:12:25.578Z,3312
2016-10-21T12:13:38.555Z,3712
2016-10-21T12:14:51.808Z,4532
2016-10-21T12:16:04.217Z,5456
2016-10-21T12:17:17.244Z,5520
2016-10-21T12:18:30.328Z,5592
2016-10-21T12:19:43.408Z,5612
2016-10-21T12:20:56.998Z,6400
2016-10-21T12:22:09.947Z,7340
2016-10-21T12:23:22.348Z,8180
2016-10-21T12:24:35.332Z,8920
2016-10-21T12:25:48.335Z,9644
2016-10-21T12:27:00.839Z,11136
2016-10-21T12:28:13.871Z,12876
2016-10-21T12:29:26.997Z,15156
2016-10-21T12:30:40.404Z,16484
2016-10-21T12:31:53.459Z,17024
2016-10-21T12:33:06.485Z,18336
2016-10-21T12:34:19.708Z,16572
2016-10-21T12:35:33.232Z,13872
2016-10-21T12:36:46.314Z,11696
2016-10-21T12:37:59.862Z,10196
2016-10-21T12:39:12.872Z,10536
2016-10-21T12:40:25.508Z,14744
2016-10-21T12:41:37.993Z,12740
2016-10-21T12:42:51.585Z,11660
2016-10-21T12:44:04.181Z,11524
2016-10-21T12:45:17.094Z,10400
2016-10-21T12:46:29.527Z,9840
2016-10-21T12:47:43.160Z,10356
2016-10-21T12:48:55.043Z,10152
2016-10-21T12:50:07.574Z,10100
2016-10-21T12:51:20.725Z,9204
2016-10-21T12:52:33.658Z,7884
2016-10-21T12:53:46.593Z,8072
2016-10-21T12:54:59.038Z,7752
2016-10-21T12:56:12.854Z,6976
2016-10-21T12:57:25.373Z,6688
2016-10-21T12:58:37.289Z,7724
2016-10-21T12:59:50.045Z,10292
2016-10-21T13:01:03.108Z,9464
2016-10-21T13:02:15.747Z,8984
2016-10-21T13:03:28.760Z,8884
2016-10-21T13:04:42.277Z,10100
2016-10-21T13:05:55.821Z,11560
2016-10-21T13:07:07.974Z,11908
2016-10-21T13:08:21.464Z,12244
2016-10-21T13:09:34.448Z,12228
2016-10-21T13:10:47.409Z,10884
2016-10-21T13:12:00.952Z,9932
2016-10-21T13:13:14.053Z,8628
2016-10-21T13:14:27.056Z,9244
2016-10-21T13:15:40.084Z,9720
2016-10-21T13:16:52.668Z,10204
2016-10-21T13:18:06.374Z,10296
2016-10-21T13:19:18.769Z,11276
2016-10-21T13:20:32.249Z,11216
2016-10-21T13:21:45.207Z,10924
2016-10-21T13:22:58.118Z,9960
2016-10-21T13:24:10.680Z,8840
2016-10-21T13:25:24.122Z,7092
2016-10-21T13:26:37.131Z,6284
2016-10-21T13:27:50.140Z,6228
2016-10-21T13:29:03.190Z,6232
2016-10-21T13:30:15.228Z,5392
2016-10-21T13:31:27.657Z,5032
2016-10-21T13:32:44.000Z,5092
2016-10-21T13:34:02.642Z,4624
2016-10-21T13:35:18.896Z,4448
2016-10-21T13:36:33.420Z,4384
2016-10-21T13:37:47.447Z,4564
2016-10-21T13:39:02.019Z,4548
2016-10-21T13:40:15.725Z,4320
2016-10-21T13:41:28.525Z,4768
2016-10-21T13:42:41.555Z,5068
2016-10-21T13:43:54.702Z,5100
2016-10-21T13:45:07.285Z,4840
2016-10-21T13:46:20.252Z,5104
2016-10-21T13:47:32.184Z,5496
2016-10-21T13:48:45.841Z,5372
2016-10-21T13:49:59.395Z,5532
2016-10-21T13:51:13.254Z,5964
2016-10-21T13:52:26.277Z,6420
2016-10-21T13:53:39.744Z,5972
2016-10-21T13:54:53.298Z,6064
2016-10-21T13:56:05.355Z,6164
2016-10-21T13:57:18.452Z,6796
2016-10-21T13:58:31.476Z,7816
2016-10-21T13:59:43.438Z,8636
2016-10-21T14:00:55.881Z,8916
2016-10-21T14:02:09.073Z,7816
2016-10-21T14:03:21.199Z,7212
2016-10-21T14:04:34.864Z,5908
2016-10-21T14:05:47.436Z,5424
2016-10-21T14:07:00.536Z,5468
2016-10-21T14:08:13.585Z,7188
2016-10-21T14:09:26.594Z,5836
2016-10-21T14:10:38.019Z,4812
2016-10-21T14:11:51.178Z,4064
2016-10-21T14:13:03.691Z,4080
2016-10-21T14:14:16.156Z,4132
2016-10-21T14:15:29.085Z,4236
2016-10-21T14:16:42.063Z,4604
2016-10-21T14:17:55.673Z,5084
2016-10-21T14:19:09.233Z,5564
2016-10-21T14:20:22.307Z,6960
2016-10-21T14:21:35.252Z,8276
2016-10-21T14:22:46.776Z,6736
2016-10-21T14:23:58.365Z,6456
2016-10-21T14:25:11.435Z,6104
2016-10-21T14:26:23.923Z,5668
2016-10-21T14:27:36.359Z,6184
2016-10-21T14:28:50.040Z,7312
2016-10-21T14:30:01.957Z,7432
2016-10-21T14:31:14.441Z,5944
2016-10-21T14:32:28.012Z,5140
2016-10-21T14:33:40.935Z,4736
2016-10-21T14:34:53.523Z,4736
2016-10-21T14:36:06.074Z,5592
2016-10-21T14:37:17.448Z,7796
2016-10-21T14:38:30.419Z,9448
2016-10-21T14:39:43.506Z,9512
2016-10-21T14:40:56.969Z,9980
2016-10-21T14:42:09.929Z,11240
2016-10-21T14:43:22.378Z,11516
2016-10-21T14:44:35.423Z,12364
2016-10-21T14:45:48.652Z,14316
2016-10-21T14:47:01.313Z,14424
2016-10-21T14:48:14.803Z,13688
2016-10-21T14:49:28.453Z,11712
2016-10-21T14:50:39.949Z,10236
2016-10-21T14:51:53.416Z,9128
2016-10-21T14:53:06.431Z,8400
2016-10-21T14:54:19.524Z,7612
2016-10-21T14:55:33.080Z,7796
2016-10-21T14:56:46.268Z,8940
2016-10-21T14:58:00.121Z,9900
2016-10-21T14:59:13.615Z,8576
2016-10-21T15:00:27.116Z,7960
2016-10-21T15:01:40.677Z,7616
2016-10-21T15:02:53.118Z,8216
2016-10-21T15:04:06.110Z,10460
2016-10-21T15:05:19.141Z,13024
2016-10-21T15:06:32.224Z,11792
2016-10-21T15:07:45.232Z,12564
2016-10-21T15:08:58.787Z,16528
2016-10-21T15:10:11.288Z,19392
2016-10-21T15:11:22.810Z,19104
2016-10-21T15:12:34.935Z,18400
2016-10-21T15:13:48.400Z,17824
2016-10-21T15:15:01.243Z,17536
2016-10-21T15:16:14.178Z,18048
2016-10-21T15:17:27.887Z,18656
2016-10-21T15:18:41.374Z,18976
2016-10-21T15:19:54.895Z,18432
2016-10-21T15:21:07.376Z,18048
2016-10-21T15:22:19.810Z,16264
2016-10-21T15:23:32.364Z,13572
2016-10-21T15:24:45.318Z,13420
2016-10-21T15:25:57.825Z,14516
2016-10-21T15:27:11.108Z,14976
2016-10-21T15:28:23.556Z,14652
2016-10-21T15:29:37.112Z,13540
2016-10-21T15:30:50.045Z,13560
2016-10-21T15:32:03.564Z,13248
2016-10-21T15:33:16.588Z,11636
2016-10-21T15:34:30.250Z,10236
2016-10-21T15:35:43.257Z,10576
2016-10-21T15:36:56.821Z,12200
2016-10-21T15:38:10.262Z,14820
2016-10-21T15:39:23.233Z,15224
2016-10-21T15:40:35.727Z,13264
2016-10-21T15:41:48.750Z,13124
2016-10-21T15:43:02.240Z,15316
2016-10-21T15:44:15.759Z,21280
2016-10-21T15:45:29.351Z,15572
2016-10-21T15:46:42.894Z,14916
2016-10-21T15:47:56.441Z,15540
2016-10-21T15:49:09.463Z,14876
2016-10-21T15:50:22.629Z,27936
2016-10-21T15:51:35.683Z,17696
2016-10-21T15:52:48.743Z,11612
2016-10-21T15:54:01.883Z,9664
2016-10-21T15:55:14.354Z,9652
2016-10-21T15:56:28.014Z,10280
2016-10-21T15:57:40.123Z,9812
2016-10-21T15:58:53.684Z,9684
2016-10-21T16:00:05.626Z,9628
2016-10-21T16:01:18.077Z,9884
2016-10-21T16:02:30.050Z,10860
2016-10-21T16:03:43.561Z,11776
2016-10-21T16:04:56.510Z,11100
2016-10-21T16:06:09.554Z,10200
2016-10-21T16:07:22.658Z,9872
2016-10-21T16:08:35.098Z,10548
2016-10-21T16:09:47.596Z,10396
2016-10-21T16:11:01.125Z,9352
2016-10-21T16:12:14.179Z,9132
2016-10-21T16:13:27.169Z,8184
2016-10-21T16:14:40.069Z,7900
2016-10-21T16:15:53.501Z,7556
2016-10-21T16:17:05.889Z,7692
2016-10-21T16:18:18.472Z,7460
2016-10-21T16:19:31.483Z,6932
2016-10-21T16:20:44.411Z,7008
2016-10-21T16:21:57.267Z,7248
2016-10-21T16:23:10.352Z,7416
2016-10-21T16:24:23.306Z,9156
2016-10-21T16:25:35.779Z,9812
2016-10-21T16:26:48.786Z,11268
2016-10-21T16:28:00.748Z,10940
2016-10-21T16:29:13.871Z,10348
2016-10-21T16:30:26.883Z,11412
2016-10-21T16:31:39.824Z,12084
2016-10-21T16:32:53.326Z,15872
2016-10-21T16:34:06.716Z,18592
2016-10-21T16:35:18.634Z,17984
2016-10-21T16:36:32.152Z,21056
2016-10-21T16:37:45.723Z,22272
2016-10-21T16:38:58.761Z,23168
2016-10-21T16:40:12.580Z,21376
2016-10-21T16:41:26.146Z,18112
2016-10-21T16:42:37.663Z,15496
2016-10-21T16:43:49.625Z,14200
2016-10-21T16:45:01.606Z,16504
2016-10-21T16:46:14.092Z,17984
2016-10-21T16:47:27.127Z,16976
2016-10-21T16:48:40.619Z,15676
2016-10-21T16:49:53.155Z,14460
2016-10-21T16:51:06.379Z,11516
2016-10-21T16:52:19.939Z,10564
2016-10-21T16:53:33.436Z,10780
2016-10-21T16:54:46.457Z,10248
2016-10-21T16:55:58.980Z,11300
2016-10-21T16:57:11.922Z,12292
2016-10-21T16:58:23.845Z,13524